createdAt,value
2022-12-25T00:01:25.927Z,4.63
2022-12-25T00:04:28.792Z,4.43
2022-12-25T00:07:31.426Z,4.27
2022-12-25T00:10:38.573Z,4.32
2022-12-25T00:13:46.337Z,4.90
2022-12-25T00:16:49.040Z,4.70
2022-12-25T00:19:51.839Z,4.70
2022-12-25T00:22:54.708Z,4.30
2022-12-25T00:25:57.615Z,4.72
2022-12-25T00:29:00.269Z,4.82
2022-12-25T00:32:02.961Z,3.88
2022-12-25T00:35:06.071Z,4.40
2022-12-25T00:38:09.169Z,4.10
2022-12-25T00:41:17.611Z,4.47
2022-12-25T00:44:20.329Z,4.18
2022-12-25T00:47:23.109Z,4.50
2022-12-25T00:50:25.700Z,4.22
2022-12-25T00:53:29.343Z,4.30
2022-12-25T00:56:31.957Z,4.30
2022-12-25T00:59:35.639Z,4.55
2022-12-25T01:02:38.385Z,4.53
2022-12-25T01:05:41.440Z,4.38
2022-12-25T01:09:07.396Z,4.10
2022-12-25T01:12:10.026Z,3.90
2022-12-25T01:15:13.676Z,4.10
2022-12-25T01:18:16.388Z,4.10
2022-12-25T01:21:21.268Z,4.38
2022-12-25T01:24:24.744Z,4.20
2022-12-25T01:27:27.803Z,4.10
2022-12-25T01:30:31.619Z,4.15
2022-12-25T01:33:34.305Z,4.35
2022-12-25T01:36:36.946Z,3.78
2022-12-25T01:39:39.691Z,4.40
2022-12-25T01:42:44.127Z,4.30
2022-12-25T01:45:47.841Z,4.47
2022-12-25T01:48:51.786Z,4.18
2022-12-25T01:51:57.275Z,4.00
2022-12-25T01:55:06.232Z,4.13
2022-12-25T01:58:09.181Z,4.30
2022-12-25T02:01:11.963Z,4.30
2022-12-25T02:04:20.366Z,4.20
2022-12-25T02:07:25.416Z,4.25
2022-12-25T02:10:28.183Z,3.93
2022-12-25T02:13:31.033Z,4.32
2022-12-25T02:16:57.301Z,4.30
2022-12-25T02:20:36.269Z,3.95
2022-12-25T02:23:49.430Z,4.00
2022-12-25T02:27:10.243Z,4.37
2022-12-25T02:30:13.325Z,4.07
2022-12-25T02:33:47.780Z,4.47
2022-12-25T02:36:57.883Z,4.30
2022-12-25T02:40:29.199Z,4.40
2022-12-25T02:43:55.031Z,3.90
2022-12-25T02:47:16.355Z,3.65
2022-12-25T02:50:39.680Z,4.07
2022-12-25T02:54:02.286Z,3.75
2022-12-25T02:57:27.553Z,4.13
2022-12-25T03:00:53.516Z,3.83
2022-12-25T03:04:18.940Z,3.92
2022-12-25T03:07:23.755Z,4.18
2022-12-25T03:10:46.044Z,3.85
2022-12-25T03:13:51.565Z,3.80
2022-12-25T03:16:58.082Z,3.43
2022-12-25T03:20:19.324Z,3.90
2022-12-25T03:23:45.754Z,4.00
2022-12-25T03:26:57.663Z,3.90
2022-12-25T03:30:19.265Z,3.85
2022-12-25T03:33:47.004Z,3.70
2022-12-25T03:37:02.420Z,3.90
2022-12-25T03:41:24.731Z,3.75
2022-12-25T03:44:45.873Z,3.97
2022-12-25T03:48:11.135Z,3.58
2022-12-25T03:51:36.518Z,3.90
2022-12-25T03:55:00.025Z,3.65
2022-12-25T03:58:21.368Z,3.83
2022-12-25T04:01:42.652Z,3.92
2022-12-25T04:05:03.919Z,3.70
2022-12-25T04:08:24.892Z,4.10
2022-12-25T04:11:46.311Z,3.58
2022-12-25T04:15:07.217Z,3.70
2022-12-25T04:18:28.231Z,3.85
2022-12-25T04:21:49.735Z,3.90
2022-12-25T04:25:11.101Z,3.67
2022-12-25T04:28:32.417Z,3.30
2022-12-25T04:31:53.861Z,3.50
2022-12-25T04:35:15.409Z,3.53
2022-12-25T04:38:21.024Z,3.47
2022-12-25T04:41:23.741Z,3.73
2022-12-25T04:44:26.707Z,3.63
2022-12-25T04:47:29.315Z,3.50
2022-12-25T04:50:31.935Z,3.45
2022-12-25T04:53:34.504Z,3.67
2022-12-25T04:56:43.476Z,3.43
2022-12-25T04:59:48.280Z,3.40
2022-12-25T05:02:51.151Z,3.47
2022-12-25T05:05:54.196Z,3.65
2022-12-25T05:08:57.559Z,3.40
2022-12-25T05:12:00.409Z,3.17
2022-12-25T05:15:03.124Z,3.60
2022-12-25T05:18:05.823Z,3.47
2022-12-25T05:21:12.552Z,3.40
2022-12-25T05:24:15.267Z,3.47
2022-12-25T05:27:17.838Z,3.50
2022-12-25T05:30:20.453Z,3.47
2022-12-25T05:33:23.316Z,3.53
2022-12-25T05:36:26.071Z,3.83
2022-12-25T05:39:29.039Z,3.80
2022-12-25T05:42:31.734Z,3.40
2022-12-25T05:45:34.404Z,3.30
2022-12-25T05:48:38.430Z,3.78
2022-12-25T05:51:41.293Z,3.50
2022-12-25T05:54:44.229Z,3.83
2022-12-25T05:57:46.937Z,3.27
2022-12-25T06:00:50.190Z,3.58
2022-12-25T06:03:53.170Z,3.55
2022-12-25T06:06:55.756Z,3.42
2022-12-25T06:09:58.620Z,3.22
2022-12-25T06:13:01.207Z,3.47
2022-12-25T06:16:08.404Z,3.15
2022-12-25T06:19:11.195Z,3.70
2022-12-25T06:22:13.809Z,3.63
2022-12-25T06:25:17.031Z,3.85
2022-12-25T06:28:19.649Z,3.40
2022-12-25T06:31:23.847Z,3.55
2022-12-25T06:34:27.213Z,3.63
2022-12-25T06:37:31.176Z,3.30
2022-12-25T06:40:34.944Z,3.50
2022-12-25T06:43:38.484Z,3.53
2022-12-25T06:46:41.301Z,3.85
2022-12-25T06:49:43.880Z,3.30
2022-12-25T06:52:46.522Z,4.00
2022-12-25T06:55:49.373Z,3.55
2022-12-25T06:58:55.499Z,3.93
2022-12-25T07:01:58.968Z,3.78
2022-12-25T07:05:04.068Z,4.07
2022-12-25T07:08:06.735Z,3.63
2022-12-25T07:11:09.365Z,3.65
2022-12-25T07:14:23.530Z,4.03
2022-12-25T07:17:27.055Z,3.45
2022-12-25T07:20:30.143Z,3.67
2022-12-25T07:23:32.789Z,3.90
2022-12-25T07:26:35.476Z,3.92
2022-12-25T07:29:38.223Z,4.10
2022-12-25T07:32:44.386Z,3.60
2022-12-25T07:35:51.037Z,4.13
2022-12-25T07:38:53.770Z,4.38
2022-12-25T07:41:57.301Z,4.53
2022-12-25T07:45:03.740Z,4.20
2022-12-25T07:48:09.491Z,4.20
2022-12-25T07:51:16.474Z,4.10
2022-12-25T07:54:19.153Z,4.13
2022-12-25T07:57:21.800Z,4.38
2022-12-25T08:00:29.698Z,4.47
2022-12-25T08:03:33.959Z,4.00
2022-12-25T08:06:36.791Z,4.10
2022-12-25T08:09:39.484Z,4.38
2022-12-25T08:12:42.332Z,4.45
2022-12-25T08:15:45.201Z,4.10
2022-12-25T08:18:47.950Z,5.03
2022-12-25T08:21:50.738Z,4.25
2022-12-25T08:24:53.303Z,4.10
2022-12-25T08:27:55.891Z,3.90
2022-12-25T08:30:58.877Z,4.10
2022-12-25T08:34:03.559Z,4.10
2022-12-25T08:37:06.245Z,4.40
2022-12-25T08:40:09.427Z,4.05
2022-12-25T08:43:12.123Z,4.00
2022-12-25T08:46:14.822Z,4.23
2022-12-25T08:49:17.515Z,4.10
2022-12-25T08:52:20.077Z,4.35
2022-12-25T08:55:22.778Z,4.20
2022-12-25T08:58:26.263Z,4.28
2022-12-25T09:01:29.392Z,4.00
2022-12-25T09:04:32.088Z,4.22
2022-12-25T09:07:34.733Z,4.72
2022-12-25T09:10:37.717Z,4.53
2022-12-25T09:13:41.072Z,4.30
2022-12-25T09:16:43.951Z,3.63
2022-12-25T09:19:46.593Z,3.80
2022-12-25T09:22:49.678Z,3.70
2022-12-25T09:25:52.310Z,3.65
2022-12-25T09:28:54.998Z,4.10
2022-12-25T09:31:57.698Z,4.00
2022-12-25T09:35:00.245Z,3.80
2022-12-25T09:38:02.923Z,3.92
2022-12-25T09:41:28.442Z,3.80
2022-12-25T09:44:40.343Z,4.20
2022-12-25T09:47:47.168Z,4.07
2022-12-25T09:51:02.511Z,4.00
2022-12-25T09:54:13.057Z,4.13
2022-12-25T09:57:15.737Z,3.80
2022-12-25T10:00:22.135Z,3.95
2022-12-25T10:03:39.840Z,3.80
2022-12-25T10:07:18.448Z,3.60
2022-12-25T10:10:44.620Z,4.25
2022-12-25T10:14:11.366Z,4.15
2022-12-25T10:17:32.419Z,4.00
2022-12-25T10:20:42.685Z,3.80
2022-12-25T10:24:00.129Z,3.80
2022-12-25T10:27:08.177Z,3.78
2022-12-25T10:30:16.416Z,3.58
2022-12-25T10:33:19.393Z,3.60
2022-12-25T10:36:24.912Z,4.23
2022-12-25T10:39:27.533Z,3.95
2022-12-25T10:42:41.176Z,3.60
2022-12-25T10:45:48.776Z,3.80
2022-12-25T10:48:55.341Z,3.95
2022-12-25T10:51:57.983Z,3.70
2022-12-25T10:55:14.273Z,3.92
2022-12-25T10:58:20.891Z,3.97
2022-12-25T11:01:27.963Z,3.85
2022-12-25T11:04:35.216Z,3.70
2022-12-25T11:07:51.392Z,3.23
2022-12-25T11:10:59.951Z,3.40
2022-12-25T11:14:03.258Z,3.40
2022-12-25T11:17:09.709Z,3.90
2022-12-25T11:20:19.571Z,3.83
2022-12-25T11:23:24.196Z,3.73
2022-12-25T11:26:29.032Z,4.05
2022-12-25T11:29:34.371Z,3.50
2022-12-25T11:32:55.532Z,3.65
2022-12-25T11:36:01.983Z,3.72
2022-12-25T11:39:32.843Z,4.10
2022-12-25T11:42:40.249Z,3.70
2022-12-25T11:45:50.413Z,3.63
2022-12-25T11:49:00.541Z,3.70
2022-12-25T11:52:06.720Z,3.80
2022-12-25T11:55:36.851Z,3.47
2022-12-25T11:58:43.972Z,3.45
2022-12-25T12:01:48.581Z,3.38
2022-12-25T12:05:08.444Z,3.35
2022-12-25T12:08:11.702Z,3.90
2022-12-25T12:11:32.801Z,3.93
2022-12-25T12:14:43.170Z,3.95
2022-12-25T12:17:45.923Z,3.63
2022-12-25T12:20:58.925Z,3.58
2022-12-25T12:24:07.348Z,3.35
2022-12-25T12:27:23.771Z,3.30
2022-12-25T12:30:30.136Z,3.60
2022-12-25T12:33:56.392Z,3.45
2022-12-25T12:37:07.965Z,3.78
2022-12-25T12:40:33.154Z,3.80
2022-12-25T12:43:43.231Z,3.33
2022-12-25T12:46:57.244Z,3.70
2022-12-25T12:50:01.274Z,3.80
2022-12-25T12:53:33.602Z,3.50
2022-12-25T12:56:36.254Z,3.60
2022-12-25T12:59:47.046Z,3.23
2022-12-25T13:03:07.861Z,3.78
2022-12-25T13:06:20.160Z,3.38
2022-12-25T13:09:45.641Z,3.83
2022-12-25T13:12:53.431Z,3.63
2022-12-25T13:15:57.673Z,3.30
2022-12-25T13:19:05.029Z,3.67
2022-12-25T13:22:07.881Z,3.80
2022-12-25T13:25:24.026Z,3.30
2022-12-25T13:28:28.505Z,3.58
2022-12-25T13:31:31.748Z,3.33
2022-12-25T13:34:37.537Z,3.50
2022-12-25T13:37:40.397Z,3.35
2022-12-25T13:41:10.962Z,3.40
2022-12-25T13:44:28.820Z,3.30
2022-12-25T13:47:32.835Z,3.20
2022-12-25T13:50:35.871Z,3.83
2022-12-25T13:53:38.693Z,3.83
2022-12-25T13:56:56.122Z,3.47
2022-12-25T13:59:59.852Z,3.60
2022-12-25T14:03:04.594Z,3.30
2022-12-25T14:06:16.470Z,3.50
2022-12-25T14:09:19.576Z,3.85
2022-12-25T14:12:23.662Z,3.33
2022-12-25T14:15:30.188Z,3.90
2022-12-25T14:18:33.513Z,3.80
2022-12-25T14:21:44.369Z,3.35
2022-12-25T14:24:47.828Z,4.07
2022-12-25T14:27:52.843Z,3.65
2022-12-25T14:30:55.593Z,3.58
2022-12-25T14:34:03.324Z,4.00
2022-12-25T14:37:07.794Z,3.67
2022-12-25T14:40:28.351Z,3.60
2022-12-25T14:43:31.969Z,3.50
2022-12-25T14:46:34.800Z,3.50
2022-12-25T14:49:38.285Z,3.57
2022-12-25T14:52:45.457Z,3.58
2022-12-25T14:55:56.846Z,3.80
2022-12-25T14:59:00.334Z,3.40
2022-12-25T15:02:03.243Z,3.97
2022-12-25T15:05:22.396Z,3.60
2022-12-25T15:08:25.409Z,3.28
2022-12-25T15:11:28.882Z,3.95
2022-12-25T15:14:31.788Z,3.88
2022-12-25T15:17:36.507Z,4.00
2022-12-25T15:20:39.332Z,3.70
2022-12-25T15:23:42.207Z,3.70
2022-12-25T15:26:44.857Z,3.72
2022-12-25T15:33:16.375Z,3.75
2022-12-25T15:36:19.557Z,3.77
2022-12-25T15:39:22.180Z,3.75
2022-12-25T15:42:25.503Z,3.78
2022-12-25T15:45:30.658Z,3.72
2022-12-25T15:48:33.409Z,3.97
2022-12-25T15:51:36.133Z,4.00
2022-12-25T15:54:38.794Z,3.83
2022-12-25T15:57:43.121Z,3.72
2022-12-25T16:00:45.800Z,4.03
2022-12-25T16:03:49.014Z,4.30
2022-12-25T16:06:52.452Z,4.07
2022-12-25T16:09:55.060Z,4.20
2022-12-25T16:12:57.644Z,4.15
2022-12-25T16:16:01.505Z,4.63
2022-12-25T16:19:04.372Z,4.60
2022-12-25T16:22:14.442Z,4.20
2022-12-25T16:25:19.253Z,4.30
2022-12-25T16:28:21.828Z,4.57
2022-12-25T16:31:24.508Z,4.00
2022-12-25T16:34:27.149Z,4.13
2022-12-25T16:37:29.868Z,4.40
2022-12-25T16:40:32.493Z,4.40
2022-12-25T16:43:35.599Z,4.00
2022-12-25T16:46:40.486Z,4.57
2022-12-25T16:49:43.311Z,4.22
2022-12-25T16:52:45.891Z,4.20
2022-12-25T16:55:48.705Z,4.43
2022-12-25T16:58:51.844Z,4.22
2022-12-25T17:01:54.541Z,4.53
2022-12-25T17:04:57.997Z,4.22
2022-12-25T17:08:00.649Z,4.57
2022-12-25T17:11:05.375Z,4.32
2022-12-25T17:14:08.017Z,4.40
2022-12-25T17:17:10.697Z,4.32
2022-12-25T17:20:13.462Z,4.57
2022-12-25T17:23:16.186Z,4.30
2022-12-25T17:26:18.923Z,5.03
2022-12-25T17:29:22.956Z,4.68
2022-12-25T17:32:25.782Z,4.43
2022-12-25T17:35:28.723Z,4.70
2022-12-25T17:38:32.566Z,4.50
2022-12-25T17:41:36.163Z,4.13
2022-12-25T17:44:38.835Z,4.55
2022-12-25T17:47:41.404Z,4.35
2022-12-25T17:50:44.258Z,4.72
2022-12-25T17:53:53.587Z,4.67
2022-12-25T17:56:56.267Z,4.40
2022-12-25T17:59:58.860Z,4.40
2022-12-25T18:03:08.828Z,4.57
2022-12-25T18:06:17.913Z,4.50
2022-12-25T18:09:20.626Z,4.33
2022-12-25T18:12:23.255Z,4.22
2022-12-25T18:15:25.975Z,4.78
2022-12-25T18:18:30.342Z,4.28
2022-12-25T18:21:32.992Z,4.28
2022-12-25T18:24:35.639Z,4.80
2022-12-25T18:27:38.370Z,4.80
2022-12-25T18:30:42.279Z,4.80
2022-12-25T18:33:46.584Z,4.00
2022-12-25T18:36:49.475Z,4.15
2022-12-25T18:39:52.154Z,4.80
2022-12-25T18:43:01.072Z,4.47
2022-12-25T18:46:06.305Z,4.35
2022-12-25T18:49:11.057Z,4.38
2022-12-25T18:52:48.408Z,4.30
2022-12-25T18:55:36.698Z,4.33
2022-12-25T18:58:39.647Z,4.28
2022-12-25T19:01:42.546Z,4.13
2022-12-25T19:04:45.310Z,4.30
2022-12-25T19:07:48.243Z,4.65
2022-12-25T19:10:51.175Z,4.30
2022-12-25T19:13:54.027Z,4.40
2022-12-25T19:16:57.113Z,4.50
2022-12-25T19:20:00.650Z,4.50
2022-12-25T19:23:03.859Z,5.10
2022-12-25T19:26:08.812Z,4.80
2022-12-25T19:29:11.673Z,4.20
2022-12-25T19:32:14.358Z,4.78
2022-12-25T19:35:17.390Z,4.72
2022-12-25T19:38:22.550Z,4.78
2022-12-25T19:41:25.523Z,4.50
2022-12-25T19:44:28.304Z,4.88
2022-12-25T19:47:31.832Z,5.20
2022-12-25T19:50:34.625Z,4.72
2022-12-25T19:53:37.525Z,4.90
2022-12-25T19:56:41.125Z,4.40
2022-12-25T19:59:45.379Z,4.78
2022-12-25T20:02:48.407Z,4.50
2022-12-25T20:05:51.338Z,4.68
2022-12-25T20:08:57.340Z,4.70
2022-12-25T20:12:00.048Z,4.30
2022-12-25T20:15:02.932Z,4.35
2022-12-25T20:18:06.164Z,4.57
2022-12-25T20:21:14.212Z,4.55
2022-12-25T20:24:17.148Z,4.35
2022-12-25T20:27:20.277Z,4.57
2022-12-25T20:30:23.426Z,4.40
2022-12-25T20:33:26.422Z,5.03
2022-12-25T20:36:34.663Z,4.53
2022-12-25T20:39:40.604Z,4.80
2022-12-25T20:42:43.600Z,4.20
2022-12-25T20:45:51.454Z,4.90
2022-12-25T20:48:54.501Z,5.03
2022-12-25T20:52:03.022Z,4.90
2022-12-25T20:55:08.311Z,4.63
2022-12-25T20:58:10.999Z,4.87
2022-12-25T21:01:16.323Z,4.60
2022-12-25T21:04:19.040Z,4.95
2022-12-25T21:07:21.930Z,5.03
2022-12-25T21:10:25.569Z,4.88
2022-12-25T21:13:33.911Z,5.13
2022-12-25T21:16:36.702Z,5.07
2022-12-25T21:19:39.495Z,5.35
2022-12-25T21:22:42.187Z,5.43
2022-12-25T21:25:45.766Z,5.00
2022-12-25T21:28:50.714Z,4.80
2022-12-25T21:32:12.450Z,4.80
2022-12-25T21:35:15.189Z,5.00
2022-12-25T21:38:17.932Z,4.88
2022-12-25T21:41:20.583Z,5.20
2022-12-25T21:44:23.207Z,4.80
2022-12-25T21:47:25.792Z,5.38
2022-12-25T21:51:08.701Z,5.07
2022-12-25T21:54:12.052Z,4.88
2022-12-25T21:57:14.653Z,4.82
2022-12-25T22:00:17.365Z,4.70
2022-12-25T22:03:20.252Z,4.97
2022-12-25T22:06:42.162Z,5.03
2022-12-25T22:09:51.490Z,4.85
2022-12-25T22:13:13.323Z,5.10
2022-12-25T22:16:35.262Z,5.30
2022-12-25T22:19:45.080Z,4.97
2022-12-25T22:22:49.347Z,5.10
2022-12-25T22:25:51.991Z,4.88
2022-12-25T22:28:54.736Z,4.68
2022-12-25T22:31:57.491Z,5.00
2022-12-25T22:35:00.665Z,5.13
2022-12-25T22:38:03.290Z,5.10
2022-12-25T22:41:06.635Z,5.35
2022-12-25T22:44:17.765Z,5.13
2022-12-25T22:47:21.283Z,5.03
2022-12-25T22:50:23.916Z,4.57
2022-12-25T22:53:26.643Z,5.00
2022-12-25T22:56:29.275Z,5.18
2022-12-25T22:59:33.062Z,4.78
2022-12-25T23:02:35.959Z,4.80
2022-12-25T23:05:38.771Z,5.30
2022-12-25T23:08:41.352Z,4.93
2022-12-25T23:11:44.406Z,4.68
2022-12-25T23:14:47.090Z,5.15
2022-12-25T23:18:08.640Z,4.90
2022-12-25T23:21:33.182Z,4.85
2022-12-25T23:24:54.672Z,4.55
2022-12-25T23:27:57.181Z,4.55
2022-12-25T23:30:59.771Z,4.47
2022-12-25T23:34:04.898Z,4.37
2022-12-25T23:37:07.858Z,4.45
2022-12-25T23:40:10.980Z,4.93
2022-12-25T23:43:13.787Z,4.95
2022-12-25T23:46:17.051Z,4.47
2022-12-25T23:49:20.239Z,4.50
2022-12-25T23:52:23.001Z,4.72
2022-12-25T23:55:25.800Z,4.45
2022-12-25T23:58:29.245Z,5.05
